Airfield :
LOGIN :

Register | Disclaimer

   EN    FR    IT 

 










Legend :    VFR   Marginal VFR   IFR   Intensive IFR   Very Intensive IFR
Visi :
Ceiling :
>= 8 km
>= 3000ft
5 to 8 km
1000 to 3000 ft
1500m to 5 km
500 to 1000 ft
800 to 1500m
200 to 500 ft
< 800m
< 200 ft
Symbols :   Thunderstorms  Fog  Heavy snow  Heavy precipitations  Wind > 20 kt
SIGMETs :     Misc.  Thunderstorms  Icing  Turbulence  Mountain Waves  Volcanic Ashes







- Airport Elevation : 1822 ft


ETSL - Lechfeld AB

CURRENT METAR :
  • 191220Z 05004KT 4000 BR SCT005 12/11 Q1022 GRN

EXPIRED METARs :
  • 191150Z 03005KT 2500 BR BKN003 11/11 Q1022 YLO
  • 191120Z 02004KT 1600 BR OVC002 10/10 Q1023 AMB
  • 191050Z 05003KT 0500 FG VV000 09/09 Q1023 RED
  • 191020Z 02003KT 0150 FG VV000 09/09 Q1023 RED
  • 191000Z VRB03KT 0100 FG VV000 09/08 Q1023 RED FCST CANCEL

TAF AMD TAF ETSL
Valid from the 19 at 08:00 until the 19 at 17:00 UTC


190959Z 1908/1917 00000KT 0400 FG VV001
BECMG 1908/1910 04006KT 3000 BR OVC004
BECMG 1910/1912 05008KT 9000 NSW FEW350 CANCEL 1000 BY ETGL
No reported NOTAMs for that airfield.



MET'MAP, your aeronautical weather chart ! - Copyright ORBIFLY December 2007 - Disclaimer

ORBIFLY MET'MAP TEAM :

Programming & Development : Alexandra Zaïnal
Concept & Development : Baudouin d'Aumeries
Co-Development & Prog : Marc-Olivier Méhu
Technical & hardware support : Manuel Goepfert

Contact : metmap@orbifly.com




SOURCES & CREDITS :

   NOAA